KANW/ANW METAR and TAF weather

Enter ICAO airport designator
Station Type Date Time Source
KANW METAR 2022/01/29 11:15 UTC NOAA

KANW 291115Z AUTO 29006KT 10SM CLR M01/M10 A3001 RMK AO2 T10151097


Station Type Date Time Source
KANW Decoded METAR 2022/01/29 11:15 UTC NOAA

Ainsworth Municipal, NE, United States (KANW) 42-35N 100-00W
Jan 29, 2022 - 06:15 AM EST / 2022.01.29 1115 UTC
Wind: from the WNW (290 degrees) at 7 MPH (6 KT):0
Visibility: 10 mile(s):0
Sky conditions: clear
Temperature: 29.3 F (-1.5 C)
Windchill: 23 F (-5 C):1
Dew Point: 14.5 F (-9.7 C)
Relative Humidity: 53%
Pressure (altimeter): 30.01 in. Hg (1016 hPa)
ob: KANW 291115Z AUTO 29006KT 10SM CLR M01/M10 A3001 RMK AO2 T10151097
cycle: 11

Station Type Date Time Source
KANW TAF UTC NOAA

Error!

Example: see airport list